»·PEaware :: DAL2806 KTUS-KSNA

DAL2806 :: KTUS-KSNA

FLIGHT INFORMATION

Flight Status: Arrived
Operator:
Delta Air Lines
More flights by this operator :: More flights under this callsign
Pilot: Kirk M. (10269)
Aircraft: AIRBUS A320
(A320)
More flights by this aircraft type
Origin: KTUS Tucson Intl
United States
Destination: KSNA John Wayne-Orange Co
United States
More flights between these airports :: More routes between these airports
Route: +BURRO4 GBN J104 CULTS HRRBR EMLLD DSNEE2
File this flight plan on PilotEdge
Remarks: PBN / A1B1C1D1O1S1 DOF / 180110 REG / N320SB EET / KZLA0031 OPR / DAL PER / C RMK / TCAS SIMBRIEF
Altitude:
(Current/Filed)
34,000ft
Speed:
(Current/Filed)
441kts
Departed: 09-Jan-18 07:25 PM
Arrived: 09-Jan-18 08:39 PM
Distance/Time
Traveled:
361nm/1:14
Distance/Time
To Go:
Arrived

Flight Plot

Page will automatically refresh every two minutes.

Flight plan parsing failed; only flown route is shown


Map Options




Map Legend


Flown Route
Filed Route
Departure Airport
Arrival Airport
Navaid (VOR, NDB)
Fix

Horizontal Profiles

Position Reports

Time Latitude Longitude Heading Altitude Ground
Speed
09-Jan-18 18:57 32.120275 -110.939190 53 2601ft 0kts
09-Jan-18 18:58 32.120275 -110.939190 53 2601ft 0kts
09-Jan-18 18:59 32.120275 -110.939190 53 2601ft 0kts
09-Jan-18 19:00 32.120275 -110.939190 53 2601ft 0kts
09-Jan-18 19:01 32.120275 -110.939190 53 2601ft 0kts
09-Jan-18 19:02 32.120275 -110.939190 53 2601ft 0kts
09-Jan-18 19:03 32.120275 -110.939190 53 2601ft 0kts
09-Jan-18 19:04 32.120275 -110.939190 53 2601ft 0kts
09-Jan-18 19:05 32.120275 -110.939190 53 2601ft 0kts
09-Jan-18 19:06 32.120275 -110.939190 53 2601ft 0kts
09-Jan-18 19:07 32.120275 -110.939190 53 2601ft 0kts
09-Jan-18 19:08 32.120275 -110.939190 53 2601ft 0kts
09-Jan-18 19:09 32.120275 -110.939190 53 2601ft 0kts
09-Jan-18 19:10 32.120275 -110.939190 53 2601ft 0kts
09-Jan-18 19:11 32.120275 -110.939190 53 2601ft 0kts
09-Jan-18 19:12 32.120275 -110.939190 53 2601ft 0kts
09-Jan-18 19:13 32.120275 -110.939190 53 2601ft 0kts
09-Jan-18 19:14 32.120275 -110.939190 53 2601ft 0kts
09-Jan-18 19:15 32.120275 -110.939190 53 2601ft 0kts
09-Jan-18 19:16 32.120275 -110.939190 53 2601ft 0kts
09-Jan-18 19:17 32.120275 -110.939190 53 2601ft 0kts
09-Jan-18 19:18 32.120275 -110.939190 53 2601ft 0kts
09-Jan-18 19:19 32.120275 -110.939190 53 2601ft 0kts
09-Jan-18 19:20 32.120275 -110.939190 53 2601ft 0kts
09-Jan-18 19:21 32.120240 -110.939247 49 2601ft 2kts
09-Jan-18 19:22 32.119709 -110.939517 355 2602ft 2kts
09-Jan-18 19:23 32.119198 -110.939195 313 2603ft 2kts
09-Jan-18 19:24 32.119135 -110.939119 315 2603ft 0kts
09-Jan-18 19:25 32.119135 -110.939119 315 2603ft 0kts
09-Jan-18 19:26 32.119590 -110.939648 314 2602ft 7kts
09-Jan-18 19:27 32.120554 -110.942143 317 2596ft 15kts
09-Jan-18 19:28 32.124143 -110.946657 269 2580ft 11kts
09-Jan-18 19:29 32.123928 -110.947090 220 2579ft 0kts
09-Jan-18 19:30 32.122628 -110.947039 132 2582ft 26kts
09-Jan-18 19:31 32.095067 -110.915537 139 3848ft 194kts
09-Jan-18 19:32 32.039771 -110.875429 183 5888ft 278kts
09-Jan-18 19:33 31.981817 -110.931755 238 9911ft 270kts
09-Jan-18 19:34 31.996586 -111.021202 292 12423ft 322kts
09-Jan-18 19:35 32.040696 -111.117193 294 14926ft 342kts
09-Jan-18 19:36 32.091788 -111.213375 306 17389ft 360kts
09-Jan-18 19:37 32.158259 -111.300138 305 19790ft 362kts
09-Jan-18 19:38 32.226284 -111.389172 305 21758ft 370kts
09-Jan-18 19:39 32.292907 -111.481550 297 23551ft 369kts
09-Jan-18 19:40 32.350311 -111.583512 297 25129ft 377kts
09-Jan-18 19:41 32.408271 -111.686679 296 26564ft 384kts
09-Jan-18 19:42 32.468049 -111.793000 297 27880ft 393kts
09-Jan-18 19:43 32.529159 -111.901658 297 29072ft 401kts
09-Jan-18 19:44 32.590995 -112.012610 297 30157ft 408kts
09-Jan-18 19:45 32.652919 -112.123995 297 31564ft 404kts
09-Jan-18 19:46 32.714394 -112.234942 297 32781ft 403kts
09-Jan-18 19:47 32.775592 -112.345659 297 33879ft 402kts
09-Jan-18 19:48 32.836010 -112.455240 296 33934ft 392kts
09-Jan-18 19:49 32.895498 -112.563476 297 33935ft 395kts
09-Jan-18 19:50 32.955495 -112.671477 304 33991ft 395kts
09-Jan-18 19:51 33.026990 -112.767662 310 33969ft 387kts
09-Jan-18 19:52 33.098316 -112.862090 310 33876ft 381kts
09-Jan-18 19:53 33.167838 -112.954348 310 33854ft 379kts
09-Jan-18 19:54 33.237934 -113.047595 310 33854ft 380kts
09-Jan-18 19:55 33.308091 -113.141157 310 33879ft 381kts
09-Jan-18 19:56 33.379159 -113.236212 309 33875ft 391kts
09-Jan-18 19:57 33.450979 -113.332516 310 33979ft 388kts
09-Jan-18 19:58 33.522308 -113.428145 310 33973ft 384kts
09-Jan-18 19:59 33.585607 -113.532267 293 33929ft 399kts
09-Jan-18 20:00 33.612275 -113.661423 284 33926ft 408kts
09-Jan-18 20:01 33.636284 -113.791409 284 33923ft 408kts
09-Jan-18 20:02 33.670748 -113.919224 295 33927ft 406kts
09-Jan-18 20:03 33.717907 -114.041714 294 33949ft 406kts
09-Jan-18 20:04 33.760454 -114.168644 282 33950ft 411kts
09-Jan-18 20:05 33.776271 -114.302148 280 33943ft 408kts
09-Jan-18 20:06 33.791930 -114.437138 280 33944ft 409kts
09-Jan-18 20:07 33.807462 -114.572283 280 33942ft 409kts
09-Jan-18 20:08 33.822810 -114.707142 280 33942ft 410kts
09-Jan-18 20:09 33.837837 -114.840521 279 33955ft 411kts
09-Jan-18 20:10 33.852867 -114.975093 278 33932ft 413kts
09-Jan-18 20:11 33.868046 -115.112149 279 33944ft 410kts
09-Jan-18 20:12 33.882846 -115.247285 279 33967ft 411kts
09-Jan-18 20:13 33.897281 -115.379722 279 33954ft 388kts
09-Jan-18 20:14 33.910994 -115.506851 280 33688ft 378kts
09-Jan-18 20:15 33.923925 -115.628416 280 32676ft 362kts
09-Jan-18 20:16 33.933000 -115.746061 278 31883ft 359kts
09-Jan-18 20:17 33.941056 -115.859719 278 30982ft 349kts
09-Jan-18 20:18 33.949022 -115.973776 278 29340ft 338kts
09-Jan-18 20:19 33.956555 -116.083013 278 27745ft 325kts
09-Jan-18 20:20 33.963711 -116.188670 277 26213ft 312kts
09-Jan-18 20:21 33.953918 -116.291018 267 24715ft 304kts
09-Jan-18 20:22 33.942205 -116.384873 267 23350ft 292kts
09-Jan-18 20:23 33.931677 -116.470003 266 22089ft 281kts
09-Jan-18 20:24 33.919558 -116.567839 265 20688ft 307kts
09-Jan-18 20:25 33.906815 -116.666319 264 19203ft 299kts
09-Jan-18 20:26 33.896198 -116.748236 263 18088ft 301kts
09-Jan-18 20:27 33.885188 -116.847018 264 16329ft 299kts
09-Jan-18 20:28 33.874505 -116.945006 263 14704ft 292kts
09-Jan-18 20:29 33.864137 -117.038811 263 13421ft 279kts
09-Jan-18 20:30 33.854125 -117.128877 262 12081ft 272kts
09-Jan-18 20:31 33.844249 -117.217078 264 10725ft 265kts
09-Jan-18 20:32 33.834535 -117.303278 266 9417ft 259kts
09-Jan-18 20:33 33.825102 -117.386330 265 8373ft 249kts
09-Jan-18 20:34 33.813600 -117.463362 252 8016ft 223kts
09-Jan-18 20:35 33.797575 -117.531921 285 7447ft 221kts
09-Jan-18 20:36 33.819776 -117.600149 293 6535ft 217kts
09-Jan-18 20:37 33.848268 -117.659800 312 5141ft 208kts
09-Jan-18 20:38 33.886270 -117.709033 307 4333ft 201kts
09-Jan-18 20:39 33.879209 -117.758847 206 4047ft 200kts
09-Jan-18 20:40 33.828234 -117.773153 207 3963ft 179kts
09-Jan-18 20:41 33.785083 -117.798961 212 2099ft 168kts
09-Jan-18 20:42 33.749239 -117.822606 207 1361ft 132kts
09-Jan-18 20:43 33.713009 -117.845331 208 706ft 136kts
09-Jan-18 20:44 33.680244 -117.865936 208 48ft 132kts
09-Jan-18 20:45 33.669207 -117.871710 121 58ft 11kts
09-Jan-18 20:46 33.671731 -117.868469 29 55ft 17kts
09-Jan-18 20:47 33.675165 -117.865672 58 52ft 6kts
09-Jan-18 20:48 33.675060 -117.865058 116 52ft 0kts
09-Jan-18 20:49 33.675060 -117.865058 116 52ft 0kts

Navigation Log

Ident Type
Flight plan parsing failed, navigation log unavailable